createdAt,value
2023-04-18T00:00:48.887Z,8.40
2023-04-18T00:03:16.485Z,7.53
2023-04-18T00:05:44.191Z,7.57
2023-04-18T00:08:11.134Z,6.97
2023-04-18T00:10:38.142Z,7.20
2023-04-18T00:13:05.270Z,7.85
2023-04-18T00:15:32.463Z,8.63
2023-04-18T00:18:00.960Z,7.65
2023-04-18T00:20:27.937Z,8.18
2023-04-18T00:22:55.115Z,8.45
2023-04-18T00:25:22.234Z,7.50
2023-04-18T00:27:49.163Z,7.95
2023-04-18T00:30:16.087Z,7.93
2023-04-18T00:32:43.086Z,8.02
2023-04-18T00:35:10.173Z,8.35
2023-04-18T00:37:37.466Z,8.60
2023-04-18T00:40:05.760Z,7.78
2023-04-18T00:42:33.550Z,7.75
2023-04-18T00:45:00.845Z,7.57
2023-04-18T00:47:27.815Z,8.07
2023-04-18T00:49:55.364Z,8.32
2023-04-18T00:52:22.454Z,7.65
2023-04-18T00:54:49.733Z,8.23
2023-04-18T00:57:16.906Z,7.93
2023-04-18T00:59:43.917Z,7.97
2023-04-18T01:02:11.305Z,7.85
2023-04-18T01:04:38.842Z,7.15
2023-04-18T01:07:06.166Z,10.35
2023-04-18T01:09:33.173Z,9.48
2023-04-18T01:12:00.156Z,8.43
2023-04-18T01:14:27.157Z,9.18
2023-04-18T01:16:54.150Z,8.20
2023-04-18T01:19:21.601Z,7.68
2023-04-18T01:21:48.600Z,7.75
2023-04-18T01:24:17.126Z,7.82
2023-04-18T01:26:45.564Z,7.85
2023-04-18T01:29:12.507Z,7.40
2023-04-18T01:31:40.683Z,7.78
2023-04-18T01:34:08.288Z,7.60
2023-04-18T01:36:36.639Z,7.18
2023-04-18T01:39:03.720Z,6.85
2023-04-18T01:41:32.868Z,7.25
2023-04-18T01:44:00.518Z,7.28
2023-04-18T01:46:28.383Z,7.45
2023-04-18T01:48:56.230Z,6.50
2023-04-18T01:51:23.536Z,7.32
2023-04-18T01:53:50.728Z,7.55
2023-04-18T01:56:17.809Z,6.20
2023-04-18T01:58:44.787Z,7.65
2023-04-18T02:01:11.815Z,6.55
2023-04-18T02:03:39.279Z,7.28
2023-04-18T02:06:06.800Z,7.43
2023-04-18T02:08:35.974Z,7.45
2023-04-18T02:11:03.456Z,6.53
2023-04-18T02:13:30.491Z,7.45
2023-04-18T02:15:57.551Z,7.60
2023-04-18T02:18:25.819Z,6.50
2023-04-18T02:20:52.887Z,6.68
2023-04-18T02:23:27.277Z,7.82
2023-04-18T02:25:54.634Z,10.00
2023-04-18T02:28:21.587Z,10.70
2023-04-18T02:30:48.541Z,8.82
2023-04-18T02:33:15.511Z,8.07
2023-04-18T02:35:42.394Z,8.07
2023-04-18T02:38:09.364Z,7.25
2023-04-18T02:40:36.319Z,6.72
2023-04-18T02:43:03.339Z,8.13
2023-04-18T02:45:30.260Z,7.60
2023-04-18T02:47:57.310Z,7.43
2023-04-18T02:50:27.339Z,7.13
2023-04-18T02:52:54.273Z,6.90
2023-04-18T02:55:22.059Z,7.05
2023-04-18T02:57:48.990Z,7.78
2023-04-18T03:00:16.239Z,8.07
2023-04-18T03:02:43.435Z,8.02
2023-04-18T03:05:10.776Z,7.38
2023-04-18T03:07:37.709Z,7.38
2023-04-18T03:10:05.452Z,7.75
2023-04-18T03:12:32.471Z,7.15
2023-04-18T03:14:59.433Z,7.53
2023-04-18T03:17:26.601Z,7.72
2023-04-18T03:19:53.621Z,8.90
2023-04-18T03:22:20.669Z,7.93
2023-04-18T03:24:47.576Z,8.18
2023-04-18T03:27:14.548Z,9.02
2023-04-18T03:29:41.461Z,7.65
2023-04-18T03:32:08.408Z,7.53
2023-04-18T03:34:35.507Z,7.43
2023-04-18T03:37:02.420Z,7.10
2023-04-18T03:39:29.397Z,7.10
2023-04-18T03:41:56.394Z,7.22
2023-04-18T03:44:23.417Z,7.28
2023-04-18T03:46:50.754Z,7.93
2023-04-18T03:49:17.808Z,7.80
2023-04-18T03:51:49.525Z,9.63
2023-04-18T03:54:17.336Z,25.83
2023-04-18T03:56:45.254Z,20.80
2023-04-18T03:59:12.493Z,11.02
2023-04-18T04:01:39.616Z,10.95
2023-04-18T04:04:06.815Z,8.75
2023-04-18T04:06:33.879Z,8.40
2023-04-18T04:09:01.114Z,7.30
2023-04-18T04:11:28.080Z,7.63
2023-04-18T04:13:55.170Z,7.65
2023-04-18T04:16:22.196Z,11.20
2023-04-18T04:18:49.239Z,13.35
2023-04-18T04:21:17.997Z,19.23
2023-04-18T04:23:46.440Z,13.20
2023-04-18T04:26:23.223Z,14.88
2023-04-18T04:28:51.734Z,12.65
2023-04-18T04:31:18.861Z,10.90
2023-04-18T04:33:46.783Z,11.40
2023-04-18T04:36:16.681Z,12.10
2023-04-18T04:38:45.723Z,9.80
2023-04-18T04:41:12.813Z,10.23
2023-04-18T04:43:41.372Z,13.98
2023-04-18T04:46:09.283Z,46.70
2023-04-18T04:48:36.262Z,9.18
2023-04-18T04:51:03.268Z,17.58
2023-04-18T04:53:41.412Z,27.77
2023-04-18T04:56:09.483Z,115.20
2023-04-18T04:58:37.184Z,49.97
2023-04-18T05:01:04.213Z,43.45
2023-04-18T05:03:31.404Z,12.63
2023-04-18T05:05:58.542Z,24.38
2023-04-18T05:08:26.276Z,21.73
2023-04-18T05:10:53.229Z,9.77
2023-04-18T05:13:20.181Z,5.55
2023-04-18T05:15:47.352Z,4.43
2023-04-18T05:18:14.482Z,6.15
2023-04-18T05:20:41.542Z,4.85
2023-04-18T05:23:08.489Z,5.10
2023-04-18T05:25:35.829Z,4.90
2023-04-18T05:28:04.785Z,5.38
2023-04-18T05:30:31.762Z,5.13
2023-04-18T05:32:58.751Z,4.97
2023-04-18T05:35:25.781Z,4.57
2023-04-18T05:37:52.740Z,5.03
2023-04-18T05:40:19.769Z,4.95
2023-04-18T05:42:46.964Z,4.82
2023-04-18T05:45:13.894Z,4.68
2023-04-18T05:47:40.889Z,5.00
2023-04-18T05:50:08.732Z,4.82
2023-04-18T05:52:38.689Z,4.75
2023-04-18T05:55:06.871Z,5.20
2023-04-18T05:57:33.821Z,4.65
2023-04-18T06:00:00.752Z,4.88
2023-04-18T06:02:27.944Z,4.78
2023-04-18T06:04:55.409Z,5.15
2023-04-18T06:07:25.242Z,5.15
2023-04-18T06:09:53.464Z,5.13
2023-04-18T06:12:20.637Z,4.57
2023-04-18T06:14:47.560Z,5.20
2023-04-18T06:17:14.547Z,4.95
2023-04-18T06:19:41.508Z,4.55
2023-04-18T06:22:08.504Z,4.50
2023-04-18T06:24:35.546Z,4.57
2023-04-18T06:27:03.071Z,4.43
2023-04-18T06:29:35.541Z,4.85
2023-04-18T06:32:03.189Z,5.00
2023-04-18T06:34:30.129Z,4.53
2023-04-18T06:36:57.091Z,4.03
2023-04-18T06:39:24.076Z,5.15
2023-04-18T06:41:51.075Z,4.68
2023-04-18T06:44:17.985Z,4.40
2023-04-18T06:46:45.106Z,4.82
2023-04-18T06:49:12.113Z,4.38
2023-04-18T06:51:39.071Z,3.90
2023-04-18T06:54:06.072Z,4.47
2023-04-18T06:56:36.258Z,4.03
2023-04-18T06:59:03.511Z,3.78
2023-04-18T07:01:34.872Z,4.35
2023-04-18T07:04:01.979Z,4.05
2023-04-18T07:06:29.097Z,3.95
2023-04-18T07:09:00.173Z,3.95
2023-04-18T07:11:27.829Z,4.85
2023-04-18T07:13:54.797Z,4.18
2023-04-18T07:16:22.034Z,4.43
2023-04-18T07:18:49.115Z,4.32
2023-04-18T07:21:16.068Z,4.35
2023-04-18T07:23:43.032Z,4.38
2023-04-18T07:26:13.411Z,4.20
2023-04-18T07:28:40.380Z,3.97
2023-04-18T07:31:11.460Z,4.55
2023-04-18T07:33:39.065Z,4.13
2023-04-18T07:36:06.406Z,5.05
2023-04-18T07:38:35.479Z,3.70
2023-04-18T07:41:03.469Z,3.70
2023-04-18T07:43:30.427Z,3.40
2023-04-18T07:45:57.567Z,4.07
2023-04-18T07:48:27.546Z,3.55
2023-04-18T07:50:54.524Z,4.07
2023-04-18T07:53:21.569Z,3.50
2023-04-18T07:55:48.644Z,3.65
2023-04-18T07:58:16.085Z,4.05
2023-04-18T08:00:44.799Z,3.75
2023-04-18T08:03:12.720Z,4.40
2023-04-18T08:08:14.351Z,3.92
2023-04-18T08:10:41.390Z,4.50
2023-04-18T08:13:08.576Z,4.07
2023-04-18T08:15:35.844Z,4.28
2023-04-18T08:18:03.080Z,4.93
2023-04-18T08:20:30.164Z,4.55
2023-04-18T08:23:07.454Z,4.53
2023-04-18T08:25:36.605Z,4.18
2023-04-18T08:28:04.259Z,4.25
2023-04-18T08:30:31.610Z,4.40
2023-04-18T08:33:00.399Z,4.47
2023-04-18T08:35:27.470Z,4.18
2023-04-18T08:37:54.636Z,4.97
2023-04-18T08:40:21.708Z,4.75
2023-04-18T08:42:51.054Z,4.05
2023-04-18T08:45:19.705Z,4.13
2023-04-18T08:47:46.936Z,4.30
2023-04-18T08:50:13.937Z,3.78
2023-04-18T08:52:47.471Z,3.60
2023-04-18T08:55:14.656Z,3.10
2023-04-18T08:57:41.726Z,3.13
2023-04-18T09:00:10.269Z,2.50
2023-04-18T09:02:42.816Z,2.92
2023-04-18T09:05:20.299Z,3.10
2023-04-18T09:07:48.604Z,3.30
2023-04-18T09:10:36.662Z,3.08
2023-04-18T09:13:04.444Z,3.38
2023-04-18T09:15:31.649Z,3.10
2023-04-18T09:18:02.477Z,2.90
2023-04-18T09:23:11.451Z,2.78
2023-04-18T09:25:45.274Z,2.88
2023-04-18T09:28:30.080Z,3.15
2023-04-18T09:30:59.245Z,3.45
2023-04-18T09:33:33.683Z,2.88
2023-04-18T09:36:27.314Z,2.50
2023-04-18T09:38:57.033Z,2.45
2023-04-18T09:41:24.647Z,2.60
2023-04-18T09:44:11.673Z,2.33
2023-04-18T09:46:41.249Z,1.95
2023-04-18T09:49:10.428Z,2.67
2023-04-18T09:51:40.431Z,2.30
2023-04-18T09:54:09.787Z,2.25
2023-04-18T09:56:39.897Z,2.53
2023-04-18T09:59:09.279Z,2.13
2023-04-18T10:01:36.666Z,2.70
2023-04-18T10:04:07.967Z,2.40
2023-04-18T10:06:38.626Z,2.90
2023-04-18T10:09:07.823Z,3.20
2023-04-18T10:11:35.508Z,2.60
2023-04-18T10:14:07.888Z,2.92
2023-04-18T10:16:36.448Z,3.00
2023-04-18T10:19:23.148Z,2.90
2023-04-18T10:21:58.788Z,4.35
2023-04-18T10:24:53.912Z,3.15
2023-04-18T10:27:48.848Z,3.60
2023-04-18T10:30:16.731Z,2.90
2023-04-18T10:32:45.597Z,7.28
2023-04-18T10:35:12.681Z,4.00
2023-04-18T10:37:52.340Z,3.50
2023-04-18T10:40:34.040Z,3.70
2023-04-18T10:43:02.700Z,3.63
2023-04-18T10:45:32.639Z,3.38
2023-04-18T10:48:30.230Z,3.60
2023-04-18T10:51:17.728Z,3.60
2023-04-18T10:53:59.006Z,3.40
2023-04-18T10:56:28.253Z,4.43
2023-04-18T10:58:57.879Z,4.10
2023-04-18T11:01:32.390Z,3.70
2023-04-18T11:04:01.167Z,4.07
2023-04-18T11:06:29.095Z,3.90
2023-04-18T11:09:19.517Z,3.58
2023-04-18T11:11:46.440Z,4.28
2023-04-18T11:14:13.631Z,4.55
2023-04-18T11:16:41.076Z,3.63
2023-04-18T11:19:21.566Z,4.38
2023-04-18T11:21:48.949Z,3.88
2023-04-18T11:24:23.583Z,3.80
2023-04-18T11:26:50.708Z,3.95
2023-04-18T11:29:18.467Z,3.58
2023-04-18T11:31:57.746Z,3.28
2023-04-18T11:34:35.875Z,3.67
2023-04-18T11:37:07.767Z,3.00
2023-04-18T11:51:38.937Z,2.63
2023-04-18T11:54:05.912Z,2.65
2023-04-18T11:56:34.569Z,2.85
2023-04-18T11:59:09.297Z,2.83
2023-04-18T12:01:36.252Z,2.70
2023-04-18T12:04:08.008Z,2.63
2023-04-18T12:06:52.728Z,2.42
2023-04-18T12:09:24.451Z,2.47
2023-04-18T12:12:04.380Z,2.55
2023-04-18T12:14:31.397Z,2.95
2023-04-18T12:16:58.290Z,2.38
2023-04-18T12:19:30.328Z,2.60
2023-04-18T12:22:00.854Z,2.40
2023-04-18T12:24:32.192Z,1.90
2023-04-18T12:26:59.676Z,2.40
2023-04-18T12:29:28.657Z,2.70
2023-04-18T12:31:55.915Z,2.50
2023-04-18T12:34:22.825Z,2.42
2023-04-18T12:36:50.106Z,2.58
2023-04-18T12:39:17.003Z,2.80
2023-04-18T12:41:44.089Z,2.15
2023-04-18T12:44:11.052Z,2.80
2023-04-18T12:46:38.086Z,2.58
2023-04-18T12:49:04.981Z,2.35
2023-04-18T12:51:31.972Z,2.63
2023-04-18T12:53:58.932Z,2.58
2023-04-18T12:56:25.881Z,2.60
2023-04-18T12:58:52.749Z,2.40
2023-04-18T13:01:19.948Z,2.50
2023-04-18T13:03:56.487Z,2.65
2023-04-18T13:06:31.272Z,2.45
2023-04-18T13:08:58.817Z,2.50
2023-04-18T13:11:28.741Z,2.80
2023-04-18T13:13:55.747Z,2.50
2023-04-18T13:16:22.698Z,2.58
2023-04-18T13:18:49.608Z,2.47
2023-04-18T13:21:16.644Z,2.45
2023-04-18T13:23:43.560Z,2.28
2023-04-18T13:26:10.533Z,2.28
2023-04-18T13:28:38.174Z,2.40
2023-04-18T13:31:05.992Z,2.78
2023-04-18T13:33:40.396Z,3.30
2023-04-18T13:36:07.626Z,2.67
2023-04-18T13:38:35.135Z,3.00
2023-04-18T13:41:12.355Z,2.95
2023-04-18T13:43:40.159Z,2.50
2023-04-18T13:46:07.204Z,2.47
2023-04-18T13:48:34.143Z,2.40
2023-04-18T13:51:01.452Z,2.50
2023-04-18T13:53:30.212Z,2.20
2023-04-18T13:55:57.902Z,2.58
2023-04-18T13:58:25.031Z,2.40
2023-04-18T14:00:51.940Z,2.45
2023-04-18T14:03:19.226Z,2.40
2023-04-18T14:05:46.382Z,2.20
2023-04-18T14:08:14.323Z,2.20
2023-04-18T14:10:41.325Z,2.20
2023-04-18T14:13:08.292Z,2.22
2023-04-18T14:15:35.410Z,2.15
2023-04-18T14:18:02.353Z,2.50
2023-04-18T14:20:34.534Z,2.30
2023-04-18T14:23:02.150Z,2.67
2023-04-18T14:25:30.164Z,2.20
2023-04-18T14:28:09.852Z,2.58
2023-04-18T14:30:38.457Z,2.20
2023-04-18T14:33:06.164Z,2.50
2023-04-18T14:35:33.744Z,2.20
2023-04-18T14:38:00.620Z,2.13
2023-04-18T14:40:27.725Z,2.28
2023-04-18T14:42:54.634Z,2.67
2023-04-18T14:45:21.710Z,2.80
2023-04-18T14:47:48.698Z,2.47
2023-04-18T14:50:15.760Z,2.20
2023-04-18T14:52:42.881Z,2.72
2023-04-18T14:55:10.314Z,2.50
2023-04-18T14:57:38.068Z,2.38
2023-04-18T15:00:08.423Z,2.40
2023-04-18T15:02:35.707Z,2.50
2023-04-18T15:05:03.200Z,2.53
2023-04-18T15:07:30.582Z,2.47
2023-04-18T15:09:57.564Z,2.97
2023-04-18T15:12:24.914Z,2.75
2023-04-18T15:14:51.872Z,2.72
2023-04-18T15:17:18.807Z,2.47
2023-04-18T15:19:45.799Z,2.63
2023-04-18T15:22:12.860Z,2.53
2023-04-18T15:24:39.862Z,2.78
2023-04-18T15:27:07.886Z,2.40
2023-04-18T15:29:34.874Z,2.47
2023-04-18T15:32:01.921Z,2.38
2023-04-18T15:34:29.096Z,2.10
2023-04-18T15:36:56.363Z,2.15
2023-04-18T15:39:23.519Z,2.42
2023-04-18T15:41:54.677Z,2.25
2023-04-18T15:44:22.503Z,2.40
2023-04-18T15:46:50.108Z,2.63
2023-04-18T15:49:17.566Z,2.28
2023-04-18T15:51:44.574Z,2.10
2023-04-18T15:54:11.673Z,2.25
2023-04-18T15:56:38.828Z,2.28
2023-04-18T15:59:06.780Z,2.58
2023-04-18T16:01:35.719Z,2.08
2023-04-18T16:04:03.074Z,2.28
2023-04-18T16:06:31.304Z,2.45
2023-04-18T16:08:58.329Z,2.42
2023-04-18T16:11:29.033Z,2.00
2023-04-18T16:13:56.267Z,2.30
2023-04-18T16:16:23.238Z,2.20
2023-04-18T16:18:50.309Z,2.05
2023-04-18T16:21:17.302Z,2.17
2023-04-18T16:23:44.232Z,2.13
2023-04-18T16:26:11.118Z,2.40
2023-04-18T16:28:38.103Z,2.30
2023-04-18T16:31:09.186Z,2.17
2023-04-18T16:33:36.263Z,2.10
2023-04-18T16:36:03.449Z,2.35
2023-04-18T16:38:30.418Z,2.25
2023-04-18T16:40:57.763Z,2.40
2023-04-18T16:43:27.014Z,2.55
2023-04-18T16:45:57.841Z,2.60
2023-04-18T16:48:24.939Z,2.65
2023-04-18T16:50:51.833Z,3.00
2023-04-18T16:53:18.737Z,3.50
2023-04-18T16:55:45.640Z,3.15
2023-04-18T16:58:12.555Z,2.72
2023-04-18T17:00:39.433Z,2.92
2023-04-18T17:03:10.370Z,2.88
2023-04-18T17:08:07.168Z,2.75
2023-04-18T17:10:34.531Z,2.28
2023-04-18T17:13:03.236Z,2.80
2023-04-18T17:15:30.130Z,3.83
2023-04-18T17:18:00.273Z,3.20
2023-04-18T17:20:28.380Z,4.22
2023-04-18T17:22:55.669Z,3.10
2023-04-18T17:25:22.543Z,3.33
2023-04-18T17:27:49.493Z,2.78
2023-04-18T17:30:16.527Z,3.30
2023-04-18T17:32:46.121Z,3.35
2023-04-18T17:35:14.758Z,3.15
2023-04-18T17:37:44.695Z,3.28
2023-04-18T17:40:12.250Z,6.70
2023-04-18T17:42:39.202Z,4.13
2023-04-18T17:45:08.303Z,3.70
2023-04-18T17:47:36.692Z,3.47
2023-04-18T17:50:05.057Z,3.45
2023-04-18T17:52:32.435Z,3.78
2023-04-18T17:54:59.658Z,3.05
2023-04-18T17:57:26.861Z,3.78
2023-04-18T17:59:53.800Z,3.33
2023-04-18T18:02:20.987Z,3.70
2023-04-18T18:04:48.456Z,3.53
2023-04-18T18:07:15.752Z,3.25
2023-04-18T18:09:54.646Z,3.45
2023-04-18T18:12:21.564Z,3.97
2023-04-18T18:14:48.860Z,3.60
2023-04-18T18:17:15.822Z,3.63
2023-04-18T18:19:42.788Z,3.42
2023-04-18T18:22:09.786Z,3.25
2023-04-18T18:24:36.876Z,3.38
2023-04-18T18:27:03.908Z,4.18
2023-04-18T18:29:30.892Z,5.00
2023-04-18T18:31:57.817Z,3.30
2023-04-18T18:34:24.952Z,3.10
2023-04-18T18:36:51.866Z,3.30
2023-04-18T18:39:18.901Z,3.40
2023-04-18T18:41:45.933Z,3.35
2023-04-18T18:44:13.149Z,3.85
2023-04-18T18:46:41.492Z,3.13
2023-04-18T18:49:10.098Z,3.95
2023-04-18T18:51:37.317Z,3.20
2023-04-18T18:54:04.371Z,2.92
2023-04-18T18:56:31.330Z,2.90
2023-04-18T18:58:58.751Z,3.42
2023-04-18T19:01:25.797Z,2.67
2023-04-18T19:03:52.974Z,2.45
2023-04-18T19:06:20.081Z,3.20
2023-04-18T19:08:47.105Z,2.83
2023-04-18T19:11:16.177Z,2.47
2023-04-18T19:13:43.143Z,3.17
2023-04-18T19:16:10.176Z,2.67
2023-04-18T19:18:37.202Z,2.58
2023-04-18T19:21:04.821Z,2.45
2023-04-18T19:23:31.794Z,2.53
2023-04-18T19:25:59.165Z,2.67
2023-04-18T19:28:26.266Z,2.85
2023-04-18T19:30:53.200Z,2.22
2023-04-18T19:33:21.247Z,2.17
2023-04-18T19:35:48.260Z,2.70
2023-04-18T19:38:15.489Z,2.58
2023-04-18T19:40:42.880Z,2.58
2023-04-18T19:43:09.914Z,2.75
2023-04-18T19:45:36.875Z,2.28
2023-04-18T19:48:04.270Z,2.50
2023-04-18T19:50:31.339Z,2.83
2023-04-18T19:52:58.292Z,2.22
2023-04-18T19:55:25.687Z,2.78
2023-04-18T19:57:55.959Z,2.58
2023-04-18T20:00:22.981Z,6.22
2023-04-18T20:02:50.151Z,2.78
2023-04-18T20:05:18.701Z,2.53
2023-04-18T20:07:45.812Z,2.20
2023-04-18T20:10:13.790Z,2.08
2023-04-18T20:12:43.781Z,2.65
2023-04-18T20:15:13.839Z,2.13
2023-04-18T20:17:40.936Z,2.42
2023-04-18T20:20:09.422Z,2.33
2023-04-18T20:22:37.308Z,2.50
2023-04-18T20:25:05.015Z,2.40
2023-04-18T20:27:32.024Z,2.38
2023-04-18T20:29:59.202Z,2.25
2023-04-18T20:32:26.899Z,2.42
2023-04-18T20:34:54.039Z,2.72
2023-04-18T20:37:21.733Z,2.50
2023-04-18T20:42:26.134Z,2.92
2023-04-18T20:44:54.699Z,2.25
2023-04-18T20:47:21.631Z,2.05
2023-04-18T20:49:48.541Z,2.20
2023-04-18T20:52:15.631Z,2.33
2023-04-18T20:54:42.615Z,1.83
2023-04-18T20:57:09.572Z,1.98
2023-04-18T20:59:36.432Z,2.15
2023-04-18T21:02:03.535Z,2.00
2023-04-18T21:04:30.680Z,1.95
2023-04-18T21:06:57.965Z,2.20
2023-04-18T21:09:24.866Z,1.90
2023-04-18T21:11:51.800Z,2.00
2023-04-18T21:14:19.958Z,2.05
2023-04-18T21:16:46.835Z,1.85
2023-04-18T21:19:13.751Z,2.05
2023-04-18T21:21:40.609Z,1.77
2023-04-18T21:24:07.524Z,2.28
2023-04-18T21:26:34.431Z,2.00
2023-04-18T21:29:04.425Z,1.98
2023-04-18T21:31:33.114Z,1.95
2023-04-18T21:34:02.464Z,2.00
2023-04-18T21:36:31.033Z,2.15
2023-04-18T21:38:59.557Z,2.30
2023-04-18T21:41:26.812Z,2.20
2023-04-18T21:43:54.040Z,1.92
2023-04-18T21:46:21.121Z,2.05
2023-04-18T21:48:48.329Z,1.95
2023-04-18T21:51:16.966Z,2.00
2023-04-18T21:53:44.075Z,1.63
2023-04-18T21:56:11.569Z,1.83
2023-04-18T21:58:38.731Z,1.42
2023-04-18T22:01:05.768Z,1.75
2023-04-18T22:03:37.646Z,1.65
2023-04-18T22:06:04.922Z,1.70
2023-04-18T22:08:31.823Z,1.52
2023-04-18T22:10:59.371Z,1.70
2023-04-18T22:13:33.214Z,1.65
2023-04-18T22:16:04.321Z,2.00
2023-04-18T22:18:34.635Z,1.55
2023-04-18T22:21:03.487Z,1.70
2023-04-18T22:23:31.154Z,1.40
2023-04-18T22:25:58.221Z,1.50
2023-04-18T22:28:25.192Z,1.98
2023-04-18T22:30:52.105Z,1.60
2023-04-18T22:33:19.162Z,1.50
2023-04-18T22:35:47.963Z,1.50
2023-04-18T22:38:14.993Z,1.80
2023-04-18T22:40:42.018Z,1.80
2023-04-18T22:43:09.024Z,1.70
2023-04-18T22:45:36.001Z,1.75
2023-04-18T22:48:02.963Z,1.73
2023-04-18T22:50:30.648Z,1.95
2023-04-18T22:52:57.604Z,1.60
2023-04-18T22:55:24.576Z,1.38
2023-04-18T22:57:51.673Z,1.80
2023-04-18T23:00:18.933Z,1.63
2023-04-18T23:02:46.047Z,1.33
2023-04-18T23:05:15.588Z,1.73
2023-04-18T23:07:42.592Z,1.60
2023-04-18T23:10:10.062Z,1.83
2023-04-18T23:12:36.948Z,2.15
2023-04-18T23:15:04.165Z,1.95
2023-04-18T23:17:31.107Z,1.50
2023-04-18T23:19:58.008Z,1.80
2023-04-18T23:22:24.930Z,1.60
2023-04-18T23:24:51.919Z,1.92
2023-04-18T23:27:19.404Z,1.90
2023-04-18T23:29:48.857Z,1.65
2023-04-18T23:32:16.142Z,1.80
2023-04-18T23:34:43.029Z,1.73
2023-04-18T23:37:09.916Z,1.75
2023-04-18T23:39:36.924Z,1.90
2023-04-18T23:42:03.896Z,2.03
2023-04-18T23:44:31.723Z,2.08
2023-04-18T23:46:59.088Z,1.63
2023-04-18T23:49:28.177Z,2.00
2023-04-18T23:51:56.524Z,1.83
2023-04-18T23:54:23.390Z,1.85
2023-04-18T23:56:50.352Z,1.90
2023-04-18T23:59:17.231Z,2.08
